SBFZ/FOR METAR and TAF weather

Enter ICAO airport designator
Station Type Date Time Source
SBFZ METAR 2019/04/18 14:00 UTC NOAA

SBFZ 181400Z 09009KT 9999 VCSH BKN020 FEW025TCU 31/24 Q1012


Station Type Date Time Source
SBFZ Decoded METAR 2019/04/18 14:00 UTC NOAA

Fortaleza / pinto Martins , Brazil (SBFZ) 03-47S 038-32W 25M
Apr 18, 2019 - 10:00 AM EDT / 2019.04.18 1400 UTC
Wind: from the E (090 degrees) at 10 MPH (9 KT):0
Visibility: greater than 7 mile(s):0
Sky conditions: mostly cloudy
Weather: showers in the vicinity; Towering cumulus clouds observed
Temperature: 87 F (31 C)
Heat index: 95.7 F (35.4 C):1
Dew Point: 75 F (24 C)
Relative Humidity: 66%
Pressure (altimeter): 29.88 in. Hg (1012 hPa)
ob: SBFZ 181400Z 09009KT 9999 VCSH BKN020 FEW025TCU 31/24 Q1012
cycle: 14

Station Type Date Time Source
SBFZ TAF 2019/04/18 12:30 UTC NOAA

TAF SBFZ 181000Z 1812/1912 15005KT 9999 SCT020 FEW025TCU TX30/1815Z TN25/1907Z
BECMG 1821/1823 09006KT CAVOK
BECMG 1901/1903 9999SCT017
BECMG 1906/1908 14005KT SCT020
RMK PFN

Example: see airport list